sensor_id;sensor_type;location;lat;lon;timestamp;temperature;humidity
71208;DHT22;58938;49.868;8.646;2022-08-19T00:00:12;25.20;53.40
71208;DHT22;58938;49.868;8.646;2022-08-19T00:02:39;25.20;53.40
71208;DHT22;58938;49.868;8.646;2022-08-19T00:05:05;25.20;53.40
71208;DHT22;58938;49.868;8.646;2022-08-19T00:07:31;25.20;53.40
71208;DHT22;58938;49.868;8.646;2022-08-19T00:09:57;25.20;53.30
71208;DHT22;58938;49.868;8.646;2022-08-19T00:12:22;25.20;53.40
71208;DHT22;58938;49.868;8.646;2022-08-19T00:14:48;25.20;53.40
71208;DHT22;58938;49.868;8.646;2022-08-19T00:17:13;25.20;53.40
71208;DHT22;58938;49.868;8.646;2022-08-19T00:19:39;25.10;53.50
71208;DHT22;58938;49.868;8.646;2022-08-19T00:22:06;25.10;53.40
71208;DHT22;58938;49.868;8.646;2022-08-19T00:24:33;25.10;53.30
71208;DHT22;58938;49.868;8.646;2022-08-19T00:26:59;25.10;53.10
71208;DHT22;58938;49.868;8.646;2022-08-19T00:29:27;25.10;53.00
71208;DHT22;58938;49.868;8.646;2022-08-19T00:31:53;25.10;52.90
71208;DHT22;58938;49.868;8.646;2022-08-19T00:34:21;25.00;52.80
71208;DHT22;58938;49.868;8.646;2022-08-19T00:36:47;25.00;52.70
71208;DHT22;58938;49.868;8.646;2022-08-19T00:39:15;25.00;52.70
71208;DHT22;58938;49.868;8.646;2022-08-19T00:41:42;25.00;52.70
71208;DHT22;58938;49.868;8.646;2022-08-19T00:44:12;25.00;52.60
71208;DHT22;58938;49.868;8.646;2022-08-19T00:46:41;25.00;52.60
71208;DHT22;58938;49.868;8.646;2022-08-19T00:49:16;25.00;52.60
71208;DHT22;58938;49.868;8.646;2022-08-19T00:51:47;25.00;52.50
71208;DHT22;58938;49.868;8.646;2022-08-19T00:54:15;25.00;52.40
71208;DHT22;58938;49.868;8.646;2022-08-19T00:56:41;25.00;52.40
71208;DHT22;58938;49.868;8.646;2022-08-19T00:59:07;24.90;52.40
71208;DHT22;58938;49.868;8.646;2022-08-19T01:01:36;24.90;52.40
71208;DHT22;58938;49.868;8.646;2022-08-19T01:04:01;24.90;52.30
71208;DHT22;58938;49.868;8.646;2022-08-19T01:06:27;24.90;52.40
71208;DHT22;58938;49.868;8.646;2022-08-19T01:08:54;24.90;52.40
71208;DHT22;58938;49.868;8.646;2022-08-19T01:11:20;24.90;52.40
71208;DHT22;58938;49.868;8.646;2022-08-19T01:13:46;24.90;52.40
71208;DHT22;58938;49.868;8.646;2022-08-19T01:16:13;24.90;52.40
71208;DHT22;58938;49.868;8.646;2022-08-19T01:18:41;24.90;52.40
71208;DHT22;58938;49.868;8.646;2022-08-19T01:21:23;24.90;52.40
71208;DHT22;58938;49.868;8.646;2022-08-19T01:23:51;24.90;52.40
71208;DHT22;58938;49.868;8.646;2022-08-19T01:26:20;24.90;52.40
71208;DHT22;58938;49.868;8.646;2022-08-19T01:28:48;24.90;52.40
71208;DHT22;58938;49.868;8.646;2022-08-19T01:31:18;24.90;52.40
71208;DHT22;58938;49.868;8.646;2022-08-19T01:33:44;24.90;52.50
71208;DHT22;58938;49.868;8.646;2022-08-19T01:36:15;24.80;52.60
71208;DHT22;58938;49.868;8.646;2022-08-19T01:38:43;24.80;52.70
71208;DHT22;58938;49.868;8.646;2022-08-19T01:41:10;24.80;52.80
71208;DHT22;58938;49.868;8.646;2022-08-19T01:43:37;24.80;52.80
71208;DHT22;58938;49.868;8.646;2022-08-19T01:46:03;24.70;52.80
71208;DHT22;58938;49.868;8.646;2022-08-19T01:48:35;24.70;52.80
71208;DHT22;58938;49.868;8.646;2022-08-19T01:51:00;24.70;52.90
71208;DHT22;58938;49.868;8.646;2022-08-19T01:53:26;24.70;52.90
71208;DHT22;58938;49.868;8.646;2022-08-19T01:55:52;24.70;52.90
71208;DHT22;58938;49.868;8.646;2022-08-19T01:58:22;24.70;52.90
71208;DHT22;58938;49.868;8.646;2022-08-19T02:00:49;24.70;52.90
71208;DHT22;58938;49.868;8.646;2022-08-19T02:03:16;24.70;52.90
71208;DHT22;58938;49.868;8.646;2022-08-19T02:05:42;24.70;52.80
71208;DHT22;58938;49.868;8.646;2022-08-19T02:08:09;24.70;52.90
71208;DHT22;58938;49.868;8.646;2022-08-19T02:10:39;24.70;52.80
71208;DHT22;58938;49.868;8.646;2022-08-19T02:13:05;24.70;52.80
71208;DHT22;58938;49.868;8.646;2022-08-19T02:15:30;24.60;52.90
71208;DHT22;58938;49.868;8.646;2022-08-19T02:17:56;24.60;52.90
71208;DHT22;58938;49.868;8.646;2022-08-19T02:20:22;24.60;52.80
71208;DHT22;58938;49.868;8.646;2022-08-19T02:22:47;24.60;52.90
71208;DHT22;58938;49.868;8.646;2022-08-19T02:25:13;24.60;52.90
71208;DHT22;58938;49.868;8.646;2022-08-19T02:27:41;24.60;52.90
71208;DHT22;58938;49.868;8.646;2022-08-19T02:30:10;24.60;52.90
71208;DHT22;58938;49.868;8.646;2022-08-19T02:32:36;24.60;52.90
71208;DHT22;58938;49.868;8.646;2022-08-19T02:35:02;24.60;52.80
71208;DHT22;58938;49.868;8.646;2022-08-19T02:37:28;24.60;52.90
71208;DHT22;58938;49.868;8.646;2022-08-19T02:40:12;24.60;52.90
71208;DHT22;58938;49.868;8.646;2022-08-19T02:42:38;24.60;53.00
71208;DHT22;58938;49.868;8.646;2022-08-19T02:45:06;24.60;53.00
71208;DHT22;58938;49.868;8.646;2022-08-19T02:47:33;24.60;53.00
71208;DHT22;58938;49.868;8.646;2022-08-19T02:50:01;24.60;53.10
71208;DHT22;58938;49.868;8.646;2022-08-19T02:52:27;24.60;53.10
71208;DHT22;58938;49.868;8.646;2022-08-19T02:54:53;24.50;53.10
71208;DHT22;58938;49.868;8.646;2022-08-19T02:57:20;24.60;53.10
71208;DHT22;58938;49.868;8.646;2022-08-19T02:59:46;24.60;53.20
71208;DHT22;58938;49.868;8.646;2022-08-19T03:02:11;24.60;53.30
71208;DHT22;58938;49.868;8.646;2022-08-19T03:04:37;24.50;53.30
71208;DHT22;58938;49.868;8.646;2022-08-19T03:07:02;24.50;53.40
71208;DHT22;58938;49.868;8.646;2022-08-19T03:09:28;24.50;53.40
71208;DHT22;58938;49.868;8.646;2022-08-19T03:11:55;24.50;53.40
71208;DHT22;58938;49.868;8.646;2022-08-19T03:14:20;24.50;53.40
71208;DHT22;58938;49.868;8.646;2022-08-19T03:16:51;24.50;53.40
71208;DHT22;58938;49.868;8.646;2022-08-19T03:19:18;24.50;53.40
71208;DHT22;58938;49.868;8.646;2022-08-19T03:21:45;24.50;53.50
71208;DHT22;58938;49.868;8.646;2022-08-19T03:24:14;24.50;53.50
71208;DHT22;58938;49.868;8.646;2022-08-19T03:26:45;24.50;53.40
71208;DHT22;58938;49.868;8.646;2022-08-19T03:29:12;24.40;53.30
71208;DHT22;58938;49.868;8.646;2022-08-19T03:31:39;24.40;53.40
71208;DHT22;58938;49.868;8.646;2022-08-19T03:34:06;24.40;53.30
71208;DHT22;58938;49.868;8.646;2022-08-19T03:36:32;24.40;53.40
71208;DHT22;58938;49.868;8.646;2022-08-19T03:38:59;24.40;53.50
71208;DHT22;58938;49.868;8.646;2022-08-19T03:41:32;24.40;53.50
71208;DHT22;58938;49.868;8.646;2022-08-19T03:43:58;24.40;53.50
71208;DHT22;58938;49.868;8.646;2022-08-19T03:46:27;24.40;53.50
71208;DHT22;58938;49.868;8.646;2022-08-19T03:48:54;24.40;53.50
71208;DHT22;58938;49.868;8.646;2022-08-19T03:51:22;24.40;53.50
71208;DHT22;58938;49.868;8.646;2022-08-19T03:53:50;24.40;53.50
71208;DHT22;58938;49.868;8.646;2022-08-19T03:56:16;24.40;53.60
71208;DHT22;58938;49.868;8.646;2022-08-19T03:58:42;24.40;53.60
71208;DHT22;58938;49.868;8.646;2022-08-19T04:01:10;24.40;53.60
71208;DHT22;58938;49.868;8.646;2022-08-19T04:03:36;24.40;53.60
71208;DHT22;58938;49.868;8.646;2022-08-19T04:06:29;24.40;53.60
71208;DHT22;58938;49.868;8.646;2022-08-19T04:08:57;24.30;53.70
71208;DHT22;58938;49.868;8.646;2022-08-19T04:11:45;24.30;53.70
71208;DHT22;58938;49.868;8.646;2022-08-19T04:14:13;24.30;53.60
71208;DHT22;58938;49.868;8.646;2022-08-19T04:16:39;24.30;53.70
71208;DHT22;58938;49.868;8.646;2022-08-19T04:19:05;24.30;53.70
71208;DHT22;58938;49.868;8.646;2022-08-19T04:21:32;24.30;53.80
71208;DHT22;58938;49.868;8.646;2022-08-19T04:23:58;24.30;53.80
71208;DHT22;58938;49.868;8.646;2022-08-19T04:26:27;24.30;53.90
71208;DHT22;58938;49.868;8.646;2022-08-19T04:28:54;24.20;53.90
71208;DHT22;58938;49.868;8.646;2022-08-19T04:31:26;24.20;54.00
71208;DHT22;58938;49.868;8.646;2022-08-19T04:33:56;24.20;54.00
71208;DHT22;58938;49.868;8.646;2022-08-19T04:36:31;24.20;54.00
71208;DHT22;58938;49.868;8.646;2022-08-19T04:39:00;24.20;54.00
71208;DHT22;58938;49.868;8.646;2022-08-19T04:41:26;24.20;54.00
71208;DHT22;58938;49.868;8.646;2022-08-19T04:44:11;24.20;54.10
71208;DHT22;58938;49.868;8.646;2022-08-19T04:46:37;24.20;54.10
71208;DHT22;58938;49.868;8.646;2022-08-19T04:49:04;24.20;54.10
71208;DHT22;58938;49.868;8.646;2022-08-19T04:51:32;24.10;54.20
71208;DHT22;58938;49.868;8.646;2022-08-19T04:53:58;24.10;54.20
71208;DHT22;58938;49.868;8.646;2022-08-19T04:56:25;24.10;54.20
71208;DHT22;58938;49.868;8.646;2022-08-19T04:58:53;24.10;54.30
71208;DHT22;58938;49.868;8.646;2022-08-19T05:01:27;24.10;54.30
71208;DHT22;58938;49.868;8.646;2022-08-19T05:03:54;24.10;54.30
71208;DHT22;58938;49.868;8.646;2022-08-19T05:06:22;24.10;54.40
71208;DHT22;58938;49.868;8.646;2022-08-19T05:08:48;24.10;54.50
71208;DHT22;58938;49.868;8.646;2022-08-19T05:11:19;24.10;54.50
71208;DHT22;58938;49.868;8.646;2022-08-19T05:13:48;24.10;54.60
71208;DHT22;58938;49.868;8.646;2022-08-19T05:16:16;24.10;54.60
71208;DHT22;58938;49.868;8.646;2022-08-19T05:18:43;24.00;54.60
71208;DHT22;58938;49.868;8.646;2022-08-19T05:21:27;24.00;54.60
71208;DHT22;58938;49.868;8.646;2022-08-19T05:24:12;24.00;54.70
71208;DHT22;58938;49.868;8.646;2022-08-19T05:26:42;24.00;54.70
71208;DHT22;58938;49.868;8.646;2022-08-19T05:29:08;24.00;54.60
71208;DHT22;58938;49.868;8.646;2022-08-19T05:31:35;24.00;54.70
71208;DHT22;58938;49.868;8.646;2022-08-19T05:34:01;24.00;54.70
71208;DHT22;58938;49.868;8.646;2022-08-19T05:36:34;24.00;54.70
71208;DHT22;58938;49.868;8.646;2022-08-19T05:39:01;24.00;54.70
71208;DHT22;58938;49.868;8.646;2022-08-19T05:41:27;24.00;54.80
71208;DHT22;58938;49.868;8.646;2022-08-19T05:43:57;24.00;54.80
71208;DHT22;58938;49.868;8.646;2022-08-19T05:46:22;24.00;54.80
71208;DHT22;58938;49.868;8.646;2022-08-19T05:48:48;24.00;54.80
71208;DHT22;58938;49.868;8.646;2022-08-19T05:51:14;24.00;54.80
71208;DHT22;58938;49.868;8.646;2022-08-19T05:53:42;24.00;55.00
71208;DHT22;58938;49.868;8.646;2022-08-19T05:56:11;24.00;55.00
71208;DHT22;58938;49.868;8.646;2022-08-19T05:58:37;24.00;55.00
71208;DHT22;58938;49.868;8.646;2022-08-19T06:01:09;24.00;55.00
71208;DHT22;58938;49.868;8.646;2022-08-19T06:03:36;24.00;55.00
71208;DHT22;58938;49.868;8.646;2022-08-19T06:06:03;24.00;55.10
71208;DHT22;58938;49.868;8.646;2022-08-19T06:08:29;24.00;55.10
71208;DHT22;58938;49.868;8.646;2022-08-19T06:10:55;24.00;55.20
71208;DHT22;58938;49.868;8.646;2022-08-19T06:13:22;24.00;55.20
71208;DHT22;58938;49.868;8.646;2022-08-19T06:15:48;24.00;55.10
71208;DHT22;58938;49.868;8.646;2022-08-19T06:18:14;24.00;55.20
71208;DHT22;58938;49.868;8.646;2022-08-19T06:20:41;24.00;55.20
71208;DHT22;58938;49.868;8.646;2022-08-19T06:23:07;24.00;55.20
71208;DHT22;58938;49.868;8.646;2022-08-19T06:25:33;24.00;55.30
71208;DHT22;58938;49.868;8.646;2022-08-19T06:27:59;23.90;55.30
71208;DHT22;58938;49.868;8.646;2022-08-19T06:30:24;24.00;55.40
71208;DHT22;58938;49.868;8.646;2022-08-19T06:32:50;24.00;55.40
71208;DHT22;58938;49.868;8.646;2022-08-19T06:35:15;24.00;55.40
71208;DHT22;58938;49.868;8.646;2022-08-19T06:37:41;24.00;55.40
71208;DHT22;58938;49.868;8.646;2022-08-19T06:40:08;24.00;55.40
71208;DHT22;58938;49.868;8.646;2022-08-19T06:42:35;24.00;55.40
71208;DHT22;58938;49.868;8.646;2022-08-19T06:45:04;24.00;55.40
71208;DHT22;58938;49.868;8.646;2022-08-19T06:47:31;24.10;55.50
71208;DHT22;58938;49.868;8.646;2022-08-19T06:49:59;24.10;55.50
71208;DHT22;58938;49.868;8.646;2022-08-19T06:52:27;24.00;55.40
71208;DHT22;58938;49.868;8.646;2022-08-19T06:54:53;24.10;55.50
71208;DHT22;58938;49.868;8.646;2022-08-19T06:57:20;24.10;55.50
71208;DHT22;58938;49.868;8.646;2022-08-19T06:59:46;24.10;55.50
71208;DHT22;58938;49.868;8.646;2022-08-19T07:02:12;24.10;55.50
71208;DHT22;58938;49.868;8.646;2022-08-19T07:04:38;24.10;55.50
71208;DHT22;58938;49.868;8.646;2022-08-19T07:07:11;24.20;55.50
71208;DHT22;58938;49.868;8.646;2022-08-19T07:09:39;24.20;55.40
71208;DHT22;58938;49.868;8.646;2022-08-19T07:12:07;24.20;55.30
71208;DHT22;58938;49.868;8.646;2022-08-19T07:14:35;24.20;55.30
71208;DHT22;58938;49.868;8.646;2022-08-19T07:17:04;24.20;55.30
71208;DHT22;58938;49.868;8.646;2022-08-19T07:19:30;24.20;55.20
71208;DHT22;58938;49.868;8.646;2022-08-19T07:21:57;24.20;55.20
71208;DHT22;58938;49.868;8.646;2022-08-19T07:24:26;24.30;55.10
71208;DHT22;58938;49.868;8.646;2022-08-19T07:26:54;24.20;55.10
71208;DHT22;58938;49.868;8.646;2022-08-19T07:29:21;24.30;55.10
71208;DHT22;58938;49.868;8.646;2022-08-19T07:31:51;24.30;55.00
71208;DHT22;58938;49.868;8.646;2022-08-19T07:34:17;24.20;55.00
71208;DHT22;58938;49.868;8.646;2022-08-19T07:36:44;24.30;55.00
71208;DHT22;58938;49.868;8.646;2022-08-19T07:39:14;24.30;55.00
71208;DHT22;58938;49.868;8.646;2022-08-19T07:41:40;24.30;54.90
71208;DHT22;58938;49.868;8.646;2022-08-19T07:44:07;24.30;54.90
71208;DHT22;58938;49.868;8.646;2022-08-19T07:46:36;24.30;55.00
71208;DHT22;58938;49.868;8.646;2022-08-19T07:49:04;24.40;54.90
71208;DHT22;58938;49.868;8.646;2022-08-19T07:51:30;24.40;54.90
71208;DHT22;58938;49.868;8.646;2022-08-19T07:53:56;24.40;54.80
71208;DHT22;58938;49.868;8.646;2022-08-19T07:56:22;24.40;54.80
71208;DHT22;58938;49.868;8.646;2022-08-19T07:58:52;24.50;54.80
71208;DHT22;58938;49.868;8.646;2022-08-19T08:01:21;24.50;54.80
71208;DHT22;58938;49.868;8.646;2022-08-19T08:03:48;24.50;54.70
71208;DHT22;58938;49.868;8.646;2022-08-19T08:06:32;24.60;54.70
71208;DHT22;58938;49.868;8.646;2022-08-19T08:09:21;24.60;54.60
71208;DHT22;58938;49.868;8.646;2022-08-19T08:11:49;24.60;54.50
71208;DHT22;58938;49.868;8.646;2022-08-19T08:14:22;24.70;54.30
71208;DHT22;58938;49.868;8.646;2022-08-19T08:16:49;24.70;54.10
71208;DHT22;58938;49.868;8.646;2022-08-19T08:19:17;24.70;54.10
71208;DHT22;58938;49.868;8.646;2022-08-19T08:21:43;24.70;53.90
71208;DHT22;58938;49.868;8.646;2022-08-19T08:24:09;24.70;53.80
71208;DHT22;58938;49.868;8.646;2022-08-19T08:26:35;24.80;53.70
71208;DHT22;58938;49.868;8.646;2022-08-19T08:29:01;24.80;53.60
71208;DHT22;58938;49.868;8.646;2022-08-19T08:31:26;24.80;53.60
71208;DHT22;58938;49.868;8.646;2022-08-19T08:33:52;24.90;53.20
71208;DHT22;58938;49.868;8.646;2022-08-19T08:36:18;24.90;53.00
71208;DHT22;58938;49.868;8.646;2022-08-19T08:38:44;24.90;52.80
71208;DHT22;58938;49.868;8.646;2022-08-19T08:44:01;25.00;52.30
71208;DHT22;58938;49.868;8.646;2022-08-19T08:47:02;25.00;52.10
71208;DHT22;58938;49.868;8.646;2022-08-19T08:50:00;25.00;52.00
71208;DHT22;58938;49.868;8.646;2022-08-19T08:52:29;25.10;51.80
71208;DHT22;58938;49.868;8.646;2022-08-19T08:54:58;25.10;51.70
71208;DHT22;58938;49.868;8.646;2022-08-19T09:00:19;25.10;51.60
71208;DHT22;58938;49.868;8.646;2022-08-19T09:02:46;25.10;51.50
71208;DHT22;58938;49.868;8.646;2022-08-19T09:05:13;25.10;51.50
71208;DHT22;58938;49.868;8.646;2022-08-19T09:13:06;25.20;50.90
71208;DHT22;58938;49.868;8.646;2022-08-19T09:15:38;25.30;50.70
71208;DHT22;58938;49.868;8.646;2022-08-19T09:18:05;25.30;50.50
71208;DHT22;58938;49.868;8.646;2022-08-19T09:20:31;25.30;50.50
71208;DHT22;58938;49.868;8.646;2022-08-19T09:22:57;25.30;50.30
71208;DHT22;58938;49.868;8.646;2022-08-19T09:25:24;25.40;50.20
71208;DHT22;58938;49.868;8.646;2022-08-19T09:27:51;25.40;50.20
71208;DHT22;58938;49.868;8.646;2022-08-19T09:30:24;25.40;50.20
71208;DHT22;58938;49.868;8.646;2022-08-19T09:32:51;25.50;50.20
71208;DHT22;58938;49.868;8.646;2022-08-19T09:35:25;25.50;50.10
71208;DHT22;58938;49.868;8.646;2022-08-19T09:37:52;25.50;50.10
71208;DHT22;58938;49.868;8.646;2022-08-19T09:40:18;25.50;50.20
71208;DHT22;58938;49.868;8.646;2022-08-19T09:42:44;25.50;50.20
71208;DHT22;58938;49.868;8.646;2022-08-19T09:45:12;25.50;50.20
71208;DHT22;58938;49.868;8.646;2022-08-19T09:47:38;25.50;50.00
71208;DHT22;58938;49.868;8.646;2022-08-19T09:50:08;25.60;50.00
71208;DHT22;58938;49.868;8.646;2022-08-19T09:52:34;25.60;49.90
71208;DHT22;58938;49.868;8.646;2022-08-19T09:55:03;25.60;49.90
71208;DHT22;58938;49.868;8.646;2022-08-19T09:57:28;25.70;49.90
71208;DHT22;58938;49.868;8.646;2022-08-19T09:59:54;25.70;49.60
71208;DHT22;58938;49.868;8.646;2022-08-19T10:02:20;25.70;49.70
71208;DHT22;58938;49.868;8.646;2022-08-19T10:04:45;25.70;49.60
71208;DHT22;58938;49.868;8.646;2022-08-19T10:07:29;25.80;49.60
71208;DHT22;58938;49.868;8.646;2022-08-19T10:09:55;25.80;49.60
71208;DHT22;58938;49.868;8.646;2022-08-19T10:12:21;25.80;49.50
71208;DHT22;58938;49.868;8.646;2022-08-19T10:14:47;25.80;49.40
71208;DHT22;58938;49.868;8.646;2022-08-19T10:17:13;25.80;49.40
71208;DHT22;58938;49.868;8.646;2022-08-19T10:19:40;25.90;49.30
71208;DHT22;58938;49.868;8.646;2022-08-19T10:22:06;25.90;49.30
71208;DHT22;58938;49.868;8.646;2022-08-19T10:24:33;25.90;49.30
71208;DHT22;58938;49.868;8.646;2022-08-19T10:27:00;25.90;49.00
71208;DHT22;58938;49.868;8.646;2022-08-19T10:29:28;25.90;49.00
71208;DHT22;58938;49.868;8.646;2022-08-19T10:31:54;26.00;48.80
71208;DHT22;58938;49.868;8.646;2022-08-19T10:34:21;26.00;48.60
71208;DHT22;58938;49.868;8.646;2022-08-19T10:36:46;26.00;48.60
71208;DHT22;58938;49.868;8.646;2022-08-19T10:39:12;26.00;48.50
71208;DHT22;58938;49.868;8.646;2022-08-19T10:41:39;26.10;48.50
71208;DHT22;58938;49.868;8.646;2022-08-19T10:44:08;26.10;48.30
71208;DHT22;58938;49.868;8.646;2022-08-19T10:46:37;26.20;48.10
71208;DHT22;58938;49.868;8.646;2022-08-19T10:49:05;26.20;47.90
71208;DHT22;58938;49.868;8.646;2022-08-19T10:51:31;26.20;47.80
71208;DHT22;58938;49.868;8.646;2022-08-19T10:54:16;26.30;47.70
71208;DHT22;58938;49.868;8.646;2022-08-19T10:56:42;26.30;47.40
71208;DHT22;58938;49.868;8.646;2022-08-19T11:01:45;26.30;46.80
71208;DHT22;58938;49.868;8.646;2022-08-19T11:04:11;26.30;46.50
71208;DHT22;58938;49.868;8.646;2022-08-19T11:06:39;26.40;46.30
71208;DHT22;58938;49.868;8.646;2022-08-19T11:09:07;26.40;46.00
71208;DHT22;58938;49.868;8.646;2022-08-19T11:11:33;26.50;45.60
71208;DHT22;58938;49.868;8.646;2022-08-19T11:14:05;26.70;45.20
71208;DHT22;58938;49.868;8.646;2022-08-19T11:16:30;26.80;44.50
71208;DHT22;58938;49.868;8.646;2022-08-19T11:18:58;26.90;44.10
71208;DHT22;58938;49.868;8.646;2022-08-19T11:21:30;27.10;43.90
71208;DHT22;58938;49.868;8.646;2022-08-19T11:23:59;27.20;43.70
71208;DHT22;58938;49.868;8.646;2022-08-19T11:26:26;27.30;43.50
71208;DHT22;58938;49.868;8.646;2022-08-19T11:28:52;27.30;43.10
71208;DHT22;58938;49.868;8.646;2022-08-19T11:31:23;27.30;42.40
71208;DHT22;58938;49.868;8.646;2022-08-19T11:33:48;27.40;42.30
71208;DHT22;58938;49.868;8.646;2022-08-19T11:36:20;27.40;42.30
71208;DHT22;58938;49.868;8.646;2022-08-19T11:38:47;27.40;42.20
71208;DHT22;58938;49.868;8.646;2022-08-19T11:41:15;27.40;42.30
71208;DHT22;58938;49.868;8.646;2022-08-19T11:43:41;27.40;42.30
71208;DHT22;58938;49.868;8.646;2022-08-19T11:46:09;27.40;41.70
71208;DHT22;58938;49.868;8.646;2022-08-19T11:48:36;27.40;41.00
71208;DHT22;58938;49.868;8.646;2022-08-19T11:51:11;27.40;40.70
71208;DHT22;58938;49.868;8.646;2022-08-19T11:53:38;27.40;40.80
71208;DHT22;58938;49.868;8.646;2022-08-19T11:56:07;27.40;40.80
71208;DHT22;58938;49.868;8.646;2022-08-19T11:58:36;27.50;40.70
71208;DHT22;58938;49.868;8.646;2022-08-19T12:01:06;27.60;40.40
71208;DHT22;58938;49.868;8.646;2022-08-19T12:03:32;27.60;40.20
71208;DHT22;58938;49.868;8.646;2022-08-19T12:06:07;27.70;40.20
71208;DHT22;58938;49.868;8.646;2022-08-19T12:08:33;27.80;40.30
71208;DHT22;58938;49.868;8.646;2022-08-19T12:10:58;27.80;39.70
71208;DHT22;58938;49.868;8.646;2022-08-19T12:13:27;27.80;39.60
71208;DHT22;58938;49.868;8.646;2022-08-19T12:15:53;27.80;39.40
71208;DHT22;58938;49.868;8.646;2022-08-19T12:18:19;27.80;39.30
71208;DHT22;58938;49.868;8.646;2022-08-19T12:20:45;27.70;39.20
71208;DHT22;58938;49.868;8.646;2022-08-19T12:23:11;27.70;39.00
71208;DHT22;58938;49.868;8.646;2022-08-19T12:25:42;27.80;38.60
71208;DHT22;58938;49.868;8.646;2022-08-19T12:28:08;27.80;38.30
71208;DHT22;58938;49.868;8.646;2022-08-19T12:30:37;27.90;38.00
71208;DHT22;58938;49.868;8.646;2022-08-19T12:33:03;27.90;37.70
71208;DHT22;58938;49.868;8.646;2022-08-19T12:35:28;27.90;37.50
71208;DHT22;58938;49.868;8.646;2022-08-19T12:37:55;28.00;37.50
71208;DHT22;58938;49.868;8.646;2022-08-19T12:40:21;28.00;37.70
71208;DHT22;58938;49.868;8.646;2022-08-19T12:42:47;28.10;37.40
71208;DHT22;58938;49.868;8.646;2022-08-19T12:45:14;28.10;37.10
71208;DHT22;58938;49.868;8.646;2022-08-19T12:47:40;28.20;36.80
71208;DHT22;58938;49.868;8.646;2022-08-19T12:50:06;28.20;36.20
71208;DHT22;58938;49.868;8.646;2022-08-19T12:52:35;28.30;35.80
71208;DHT22;58938;49.868;8.646;2022-08-19T12:55:05;28.40;35.70
71208;DHT22;58938;49.868;8.646;2022-08-19T12:57:32;28.40;35.20
71208;DHT22;58938;49.868;8.646;2022-08-19T13:00:15;28.50;34.90
71208;DHT22;58938;49.868;8.646;2022-08-19T13:02:43;28.60;35.10
71208;DHT22;58938;49.868;8.646;2022-08-19T13:05:17;28.70;35.30
71208;DHT22;58938;49.868;8.646;2022-08-19T13:07:45;28.70;35.50
71208;DHT22;58938;49.868;8.646;2022-08-19T13:10:13;28.70;35.20
71208;DHT22;58938;49.868;8.646;2022-08-19T13:12:41;28.70;35.00
71208;DHT22;58938;49.868;8.646;2022-08-19T13:15:08;28.80;34.70
71208;DHT22;58938;49.868;8.646;2022-08-19T13:17:34;28.80;34.60
71208;DHT22;58938;49.868;8.646;2022-08-19T13:19:59;28.80;34.30
71208;DHT22;58938;49.868;8.646;2022-08-19T13:22:25;28.90;34.40
71208;DHT22;58938;49.868;8.646;2022-08-19T13:24:51;28.90;34.30
71208;DHT22;58938;49.868;8.646;2022-08-19T13:27:16;28.90;34.40
71208;DHT22;58938;49.868;8.646;2022-08-19T13:29:42;29.00;34.30
71208;DHT22;58938;49.868;8.646;2022-08-19T13:32:27;29.00;34.10
71208;DHT22;58938;49.868;8.646;2022-08-19T13:35:12;29.10;33.90
71208;DHT22;58938;49.868;8.646;2022-08-19T13:37:38;29.10;33.70
71208;DHT22;58938;49.868;8.646;2022-08-19T13:40:20;29.10;33.40
71208;DHT22;58938;49.868;8.646;2022-08-19T13:42:50;29.10;33.20
71208;DHT22;58938;49.868;8.646;2022-08-19T13:45:19;29.00;33.20
71208;DHT22;58938;49.868;8.646;2022-08-19T13:47:46;29.10;33.00
71208;DHT22;58938;49.868;8.646;2022-08-19T13:50:15;29.10;32.70
71208;DHT22;58938;49.868;8.646;2022-08-19T13:52:42;29.10;32.60
71208;DHT22;58938;49.868;8.646;2022-08-19T13:55:09;29.20;32.50
71208;DHT22;58938;49.868;8.646;2022-08-19T13:57:36;29.20;32.30
71208;DHT22;58938;49.868;8.646;2022-08-19T14:00:09;29.30;31.90
71208;DHT22;58938;49.868;8.646;2022-08-19T14:02:37;29.30;31.70
71208;DHT22;58938;49.868;8.646;2022-08-19T14:05:04;29.30;31.90
71208;DHT22;58938;49.868;8.646;2022-08-19T14:07:30;29.40;31.80
71208;DHT22;58938;49.868;8.646;2022-08-19T14:09:56;29.40;31.10
71208;DHT22;58938;49.868;8.646;2022-08-19T14:12:22;29.40;30.40
71208;DHT22;58938;49.868;8.646;2022-08-19T14:14:48;29.40;30.40
71208;DHT22;58938;49.868;8.646;2022-08-19T14:17:14;29.40;30.20
71208;DHT22;58938;49.868;8.646;2022-08-19T14:19:40;29.40;30.10
71208;DHT22;58938;49.868;8.646;2022-08-19T14:22:06;29.40;30.10
71208;DHT22;58938;49.868;8.646;2022-08-19T14:24:32;29.50;30.20
71208;DHT22;58938;49.868;8.646;2022-08-19T14:26:58;29.50;30.20
71208;DHT22;58938;49.868;8.646;2022-08-19T14:29:24;29.50;30.10
71208;DHT22;58938;49.868;8.646;2022-08-19T14:31:50;29.60;30.10
71208;DHT22;58938;49.868;8.646;2022-08-19T14:34:16;29.60;30.20
71208;DHT22;58938;49.868;8.646;2022-08-19T14:36:42;29.60;30.20
71208;DHT22;58938;49.868;8.646;2022-08-19T14:39:08;29.60;30.20
71208;DHT22;58938;49.868;8.646;2022-08-19T14:41:34;29.60;30.20
71208;DHT22;58938;49.868;8.646;2022-08-19T14:44:00;29.60;29.90
71208;DHT22;58938;49.868;8.646;2022-08-19T14:46:27;29.60;29.80
71208;DHT22;58938;49.868;8.646;2022-08-19T14:48:54;29.60;29.90
71208;DHT22;58938;49.868;8.646;2022-08-19T14:51:23;29.60;30.00
71208;DHT22;58938;49.868;8.646;2022-08-19T14:53:50;29.60;30.00
71208;DHT22;58938;49.868;8.646;2022-08-19T14:56:22;29.60;29.80
71208;DHT22;58938;49.868;8.646;2022-08-19T14:58:48;29.60;29.80
71208;DHT22;58938;49.868;8.646;2022-08-19T15:01:17;29.60;29.70
71208;DHT22;58938;49.868;8.646;2022-08-19T15:03:45;29.70;29.60
71208;DHT22;58938;49.868;8.646;2022-08-19T15:06:11;29.70;29.60
71208;DHT22;58938;49.868;8.646;2022-08-19T15:08:37;29.80;29.40
71208;DHT22;58938;49.868;8.646;2022-08-19T15:11:08;29.80;29.30
71208;DHT22;58938;49.868;8.646;2022-08-19T15:13:35;29.80;29.30
71208;DHT22;58938;49.868;8.646;2022-08-19T15:16:01;29.80;29.20
71208;DHT22;58938;49.868;8.646;2022-08-19T15:18:27;29.80;29.20
71208;DHT22;58938;49.868;8.646;2022-08-19T15:20:52;29.80;29.20
71208;DHT22;58938;49.868;8.646;2022-08-19T15:23:20;29.80;29.10
71208;DHT22;58938;49.868;8.646;2022-08-19T15:25:46;29.80;28.90
71208;DHT22;58938;49.868;8.646;2022-08-19T15:28:12;29.90;28.90
71208;DHT22;58938;49.868;8.646;2022-08-19T15:30:39;29.90;28.80
71208;DHT22;58938;49.868;8.646;2022-08-19T15:33:05;29.90;28.50
71208;DHT22;58938;49.868;8.646;2022-08-19T15:35:32;29.90;28.30
71208;DHT22;58938;49.868;8.646;2022-08-19T15:37:58;29.90;28.10
71208;DHT22;58938;49.868;8.646;2022-08-19T15:40:25;29.90;27.90
71208;DHT22;58938;49.868;8.646;2022-08-19T15:42:51;29.90;27.80
71208;DHT22;58938;49.868;8.646;2022-08-19T15:45:20;29.90;27.70
71208;DHT22;58938;49.868;8.646;2022-08-19T15:47:46;29.90;27.90